sensor_id;sensor_type;location;lat;lon;timestamp;P1;durP1;ratioP1;P2;durP2;ratioP2
49548;SDS011;35450;44.518;7.466;2022-11-11T00:05:34;20.05;;;13.18;;
49548;SDS011;35450;44.518;7.466;2022-11-11T00:08:56;15.80;;;12.65;;
49548;SDS011;35450;44.518;7.466;2022-11-11T00:12:19;21.70;;;13.95;;
49548;SDS011;35450;44.518;7.466;2022-11-11T00:19:03;15.35;;;12.70;;
49548;SDS011;35450;44.518;7.466;2022-11-11T00:22:45;20.85;;;12.55;;
49548;SDS011;35450;44.518;7.466;2022-11-11T00:26:26;8.98;;;6.32;;
49548;SDS011;35450;44.518;7.466;2022-11-11T00:29:50;5.40;;;4.40;;
49548;SDS011;35450;44.518;7.466;2022-11-11T00:33:13;4.93;;;3.25;;
49548;SDS011;35450;44.518;7.466;2022-11-11T00:36:36;6.97;;;4.93;;
49548;SDS011;35450;44.518;7.466;2022-11-11T00:39:59;5.70;;;4.00;;
49548;SDS011;35450;44.518;7.466;2022-11-11T00:43:22;4.82;;;4.03;;
49548;SDS011;35450;44.518;7.466;2022-11-11T00:46:45;6.70;;;3.70;;
49548;SDS011;35450;44.518;7.466;2022-11-11T00:50:27;6.30;;;5.05;;
49548;SDS011;35450;44.518;7.466;2022-11-11T00:54:09;11.40;;;4.32;;
49548;SDS011;35450;44.518;7.466;2022-11-11T00:57:32;8.75;;;5.57;;
49548;SDS011;35450;44.518;7.466;2022-11-11T01:00:55;7.65;;;6.18;;
49548;SDS011;35450;44.518;7.466;2022-11-11T01:04:18;10.10;;;7.43;;
49548;SDS011;35450;44.518;7.466;2022-11-11T01:11:03;13.27;;;9.18;;
49548;SDS011;35450;44.518;7.466;2022-11-11T01:14:32;10.63;;;8.10;;
49548;SDS011;35450;44.518;7.466;2022-11-11T01:17:55;12.07;;;8.52;;
49548;SDS011;35450;44.518;7.466;2022-11-11T01:21:19;13.20;;;9.85;;
49548;SDS011;35450;44.518;7.466;2022-11-11T01:24:45;15.13;;;10.80;;
49548;SDS011;35450;44.518;7.466;2022-11-11T01:28:09;18.58;;;11.82;;
49548;SDS011;35450;44.518;7.466;2022-11-11T01:31:32;16.77;;;13.23;;
49548;SDS011;35450;44.518;7.466;2022-11-11T01:34:55;18.58;;;14.02;;
49548;SDS011;35450;44.518;7.466;2022-11-11T01:38:17;16.45;;;12.27;;
49548;SDS011;35450;44.518;7.466;2022-11-11T01:45:38;11.50;;;8.35;;
49548;SDS011;35450;44.518;7.466;2022-11-11T01:52:41;14.65;;;11.50;;
49548;SDS011;35450;44.518;7.466;2022-11-11T01:56:06;12.38;;;10.02;;
49548;SDS011;35450;44.518;7.466;2022-11-11T01:59:32;20.58;;;14.23;;
49548;SDS011;35450;44.518;7.466;2022-11-11T02:03:06;21.67;;;16.75;;
49548;SDS011;35450;44.518;7.466;2022-11-11T02:06:31;24.88;;;18.70;;
49548;SDS011;35450;44.518;7.466;2022-11-11T02:09:55;22.80;;;18.10;;
49548;SDS011;35450;44.518;7.466;2022-11-11T02:13:19;25.13;;;19.02;;
49548;SDS011;35450;44.518;7.466;2022-11-11T02:17:01;24.35;;;18.50;;
49548;SDS011;35450;44.518;7.466;2022-11-11T02:20:26;21.25;;;16.08;;
49548;SDS011;35450;44.518;7.466;2022-11-11T02:27:25;21.27;;;16.35;;
49548;SDS011;35450;44.518;7.466;2022-11-11T02:30:50;27.67;;;18.40;;
49548;SDS011;35450;44.518;7.466;2022-11-11T02:34:13;26.00;;;18.52;;
49548;SDS011;35450;44.518;7.466;2022-11-11T02:37:36;24.17;;;17.95;;
49548;SDS011;35450;44.518;7.466;2022-11-11T02:40:59;26.20;;;17.80;;
49548;SDS011;35450;44.518;7.466;2022-11-11T02:44:40;22.65;;;17.80;;
49548;SDS011;35450;44.518;7.466;2022-11-11T02:48:03;22.65;;;17.75;;
49548;SDS011;35450;44.518;7.466;2022-11-11T02:51:26;20.40;;;14.90;;
49548;SDS011;35450;44.518;7.466;2022-11-11T02:58:11;23.92;;;16.90;;
49548;SDS011;35450;44.518;7.466;2022-11-11T03:01:35;26.08;;;18.33;;
49548;SDS011;35450;44.518;7.466;2022-11-11T03:08:20;23.90;;;17.42;;
49548;SDS011;35450;44.518;7.466;2022-11-11T03:11:43;22.48;;;17.38;;
49548;SDS011;35450;44.518;7.466;2022-11-11T03:15:05;24.73;;;17.33;;
49548;SDS011;35450;44.518;7.466;2022-11-11T03:18:28;25.15;;;18.17;;
49548;SDS011;35450;44.518;7.466;2022-11-11T03:21:51;19.20;;;15.35;;
49548;SDS011;35450;44.518;7.466;2022-11-11T03:25:13;21.60;;;15.85;;
49548;SDS011;35450;44.518;7.466;2022-11-11T03:28:55;23.73;;;16.27;;
49548;SDS011;35450;44.518;7.466;2022-11-11T03:32:18;22.38;;;16.23;;
49548;SDS011;35450;44.518;7.466;2022-11-11T03:35:41;27.08;;;16.83;;
49548;SDS011;35450;44.518;7.466;2022-11-11T03:39:04;21.52;;;17.38;;
49548;SDS011;35450;44.518;7.466;2022-11-11T03:42:27;22.13;;;16.45;;
49548;SDS011;35450;44.518;7.466;2022-11-11T03:45:53;21.17;;;17.25;;
49548;SDS011;35450;44.518;7.466;2022-11-11T03:49:17;21.08;;;15.52;;
49548;SDS011;35450;44.518;7.466;2022-11-11T03:52:41;19.88;;;13.73;;
49548;SDS011;35450;44.518;7.466;2022-11-11T03:56:06;14.15;;;11.73;;
49548;SDS011;35450;44.518;7.466;2022-11-11T03:59:29;22.38;;;16.88;;
49548;SDS011;35450;44.518;7.466;2022-11-11T04:06:41;23.25;;;16.23;;
49548;SDS011;35450;44.518;7.466;2022-11-11T04:10:23;21.30;;;15.55;;
49548;SDS011;35450;44.518;7.466;2022-11-11T04:13:46;21.90;;;16.25;;
49548;SDS011;35450;44.518;7.466;2022-11-11T04:17:28;17.98;;;12.48;;
49548;SDS011;35450;44.518;7.466;2022-11-11T04:20:51;16.38;;;12.15;;
49548;SDS011;35450;44.518;7.466;2022-11-11T04:24:33;14.10;;;10.48;;
49548;SDS011;35450;44.518;7.466;2022-11-11T04:28:14;18.02;;;12.35;;
49548;SDS011;35450;44.518;7.466;2022-11-11T04:32:00;14.38;;;11.05;;
49548;SDS011;35450;44.518;7.466;2022-11-11T04:35:48;11.38;;;8.43;;
49548;SDS011;35450;44.518;7.466;2022-11-11T04:39:11;11.63;;;8.95;;
49548;SDS011;35450;44.518;7.466;2022-11-11T04:42:52;20.42;;;11.63;;
49548;SDS011;35450;44.518;7.466;2022-11-11T04:46:16;18.13;;;12.98;;
49548;SDS011;35450;44.518;7.466;2022-11-11T04:49:38;13.38;;;9.88;;
49548;SDS011;35450;44.518;7.466;2022-11-11T04:53:02;13.13;;;10.18;;
49548;SDS011;35450;44.518;7.466;2022-11-11T04:56:27;14.48;;;10.15;;
49548;SDS011;35450;44.518;7.466;2022-11-11T05:00:09;11.55;;;9.57;;
49548;SDS011;35450;44.518;7.466;2022-11-11T05:03:34;12.90;;;9.52;;
49548;SDS011;35450;44.518;7.466;2022-11-11T05:06:56;18.38;;;11.05;;
49548;SDS011;35450;44.518;7.466;2022-11-11T05:10:37;13.40;;;10.80;;
49548;SDS011;35450;44.518;7.466;2022-11-11T05:14:01;14.45;;;10.82;;
49548;SDS011;35450;44.518;7.466;2022-11-11T05:17:44;13.25;;;10.27;;
49548;SDS011;35450;44.518;7.466;2022-11-11T05:21:36;13.35;;;10.30;;
49548;SDS011;35450;44.518;7.466;2022-11-11T05:24:59;16.42;;;10.32;;
49548;SDS011;35450;44.518;7.466;2022-11-11T05:28:40;14.10;;;10.05;;
49548;SDS011;35450;44.518;7.466;2022-11-11T05:32:03;13.88;;;9.18;;
49548;SDS011;35450;44.518;7.466;2022-11-11T05:35:29;16.05;;;10.32;;
49548;SDS011;35450;44.518;7.466;2022-11-11T05:38:52;19.25;;;13.57;;
49548;SDS011;35450;44.518;7.466;2022-11-11T05:42:14;19.02;;;14.43;;
49548;SDS011;35450;44.518;7.466;2022-11-11T05:45:39;16.52;;;10.73;;
49548;SDS011;35450;44.518;7.466;2022-11-11T05:49:02;13.75;;;10.55;;
49548;SDS011;35450;44.518;7.466;2022-11-11T05:52:37;15.05;;;10.40;;
49548;SDS011;35450;44.518;7.466;2022-11-11T05:59:22;12.65;;;8.60;;
49548;SDS011;35450;44.518;7.466;2022-11-11T06:02:44;16.38;;;10.80;;
49548;SDS011;35450;44.518;7.466;2022-11-11T06:06:06;14.10;;;10.45;;
49548;SDS011;35450;44.518;7.466;2022-11-11T06:12:51;14.05;;;10.27;;
49548;SDS011;35450;44.518;7.466;2022-11-11T06:16:23;14.30;;;10.00;;
49548;SDS011;35450;44.518;7.466;2022-11-11T06:19:46;22.27;;;15.55;;
49548;SDS011;35450;44.518;7.466;2022-11-11T06:23:08;74.03;;;47.60;;
49548;SDS011;35450;44.518;7.466;2022-11-11T06:26:31;28.65;;;19.58;;
49548;SDS011;35450;44.518;7.466;2022-11-11T06:29:54;22.13;;;16.30;;
49548;SDS011;35450;44.518;7.466;2022-11-11T06:33:17;21.38;;;15.75;;
49548;SDS011;35450;44.518;7.466;2022-11-11T06:36:41;23.55;;;17.33;;
49548;SDS011;35450;44.518;7.466;2022-11-11T06:40:04;32.90;;;25.35;;
49548;SDS011;35450;44.518;7.466;2022-11-11T06:43:27;24.20;;;17.88;;
49548;SDS011;35450;44.518;7.466;2022-11-11T06:46:50;22.17;;;17.15;;
49548;SDS011;35450;44.518;7.466;2022-11-11T06:50:12;31.23;;;22.95;;
49548;SDS011;35450;44.518;7.466;2022-11-11T06:53:35;23.25;;;18.10;;
49548;SDS011;35450;44.518;7.466;2022-11-11T06:56:58;21.38;;;15.85;;
49548;SDS011;35450;44.518;7.466;2022-11-11T07:00:21;23.83;;;14.90;;
49548;SDS011;35450;44.518;7.466;2022-11-11T07:07:06;26.00;;;16.02;;
49548;SDS011;35450;44.518;7.466;2022-11-11T07:10:29;26.25;;;17.73;;
49548;SDS011;35450;44.518;7.466;2022-11-11T07:13:52;26.90;;;17.02;;
49548;SDS011;35450;44.518;7.466;2022-11-11T07:17:15;24.35;;;16.83;;
49548;SDS011;35450;44.518;7.466;2022-11-11T07:20:38;23.17;;;16.27;;
49548;SDS011;35450;44.518;7.466;2022-11-11T07:24:01;20.00;;;14.70;;
49548;SDS011;35450;44.518;7.466;2022-11-11T07:27:24;20.92;;;16.23;;
49548;SDS011;35450;44.518;7.466;2022-11-11T07:30:47;24.67;;;17.83;;
49548;SDS011;35450;44.518;7.466;2022-11-11T07:34:09;25.70;;;17.00;;
49548;SDS011;35450;44.518;7.466;2022-11-11T07:37:32;19.75;;;14.75;;
49548;SDS011;35450;44.518;7.466;2022-11-11T07:40:57;19.98;;;14.90;;
49548;SDS011;35450;44.518;7.466;2022-11-11T07:44:20;26.75;;;19.13;;
49548;SDS011;35450;44.518;7.466;2022-11-11T07:47:43;29.30;;;21.00;;
49548;SDS011;35450;44.518;7.466;2022-11-11T07:51:06;23.15;;;16.83;;
49548;SDS011;35450;44.518;7.466;2022-11-11T07:54:29;22.35;;;14.90;;
49548;SDS011;35450;44.518;7.466;2022-11-11T07:57:53;23.52;;;15.40;;
49548;SDS011;35450;44.518;7.466;2022-11-11T08:01:16;23.98;;;14.55;;
49548;SDS011;35450;44.518;7.466;2022-11-11T08:04:39;27.83;;;16.67;;
49548;SDS011;35450;44.518;7.466;2022-11-11T08:08:05;30.38;;;22.02;;
49548;SDS011;35450;44.518;7.466;2022-11-11T08:11:28;24.58;;;17.55;;
49548;SDS011;35450;44.518;7.466;2022-11-11T08:15:10;27.13;;;17.67;;
49548;SDS011;35450;44.518;7.466;2022-11-11T08:18:32;25.85;;;17.48;;
49548;SDS011;35450;44.518;7.466;2022-11-11T08:21:55;24.70;;;17.42;;
49548;SDS011;35450;44.518;7.466;2022-11-11T08:25:18;28.55;;;18.27;;
49548;SDS011;35450;44.518;7.466;2022-11-11T08:28:42;30.88;;;18.90;;
49548;SDS011;35450;44.518;7.466;2022-11-11T08:32:05;25.67;;;17.40;;
49548;SDS011;35450;44.518;7.466;2022-11-11T08:35:28;25.05;;;18.90;;
49548;SDS011;35450;44.518;7.466;2022-11-11T08:38:51;29.33;;;18.88;;
49548;SDS011;35450;44.518;7.466;2022-11-11T08:42:15;20.40;;;15.80;;
49548;SDS011;35450;44.518;7.466;2022-11-11T08:45:37;19.92;;;14.85;;
49548;SDS011;35450;44.518;7.466;2022-11-11T08:49:01;22.88;;;15.77;;
49548;SDS011;35450;44.518;7.466;2022-11-11T08:52:24;21.83;;;15.25;;
49548;SDS011;35450;44.518;7.466;2022-11-11T08:55:47;20.83;;;15.38;;
49548;SDS011;35450;44.518;7.466;2022-11-11T08:59:10;22.73;;;15.20;;
49548;SDS011;35450;44.518;7.466;2022-11-11T09:02:33;21.27;;;15.15;;
49548;SDS011;35450;44.518;7.466;2022-11-11T09:05:56;21.67;;;14.85;;
49548;SDS011;35450;44.518;7.466;2022-11-11T09:09:19;21.05;;;14.65;;
49548;SDS011;35450;44.518;7.466;2022-11-11T09:12:41;24.55;;;15.57;;
49548;SDS011;35450;44.518;7.466;2022-11-11T09:16:05;25.90;;;17.48;;
49548;SDS011;35450;44.518;7.466;2022-11-11T09:19:28;24.15;;;18.23;;
49548;SDS011;35450;44.518;7.466;2022-11-11T09:22:51;25.45;;;18.17;;
49548;SDS011;35450;44.518;7.466;2022-11-11T09:26:17;24.95;;;19.02;;
49548;SDS011;35450;44.518;7.466;2022-11-11T09:29:43;24.42;;;17.33;;
49548;SDS011;35450;44.518;7.466;2022-11-11T09:33:07;28.17;;;19.05;;
49548;SDS011;35450;44.518;7.466;2022-11-11T09:36:32;27.50;;;19.13;;
49548;SDS011;35450;44.518;7.466;2022-11-11T09:39:55;27.92;;;19.88;;
49548;SDS011;35450;44.518;7.466;2022-11-11T09:47:15;31.33;;;22.10;;
49548;SDS011;35450;44.518;7.466;2022-11-11T09:50:59;30.58;;;21.02;;
49548;SDS011;35450;44.518;7.466;2022-11-11T09:54:30;34.53;;;21.00;;
49548;SDS011;35450;44.518;7.466;2022-11-11T09:57:55;31.70;;;21.27;;
49548;SDS011;35450;44.518;7.466;2022-11-11T10:01:30;25.70;;;19.02;;
49548;SDS011;35450;44.518;7.466;2022-11-11T10:09:43;25.88;;;20.48;;
49548;SDS011;35450;44.518;7.466;2022-11-11T10:12:53;34.05;;;21.17;;
49548;SDS011;35450;44.518;7.466;2022-11-11T10:20:14;27.27;;;20.45;;
49548;SDS011;35450;44.518;7.466;2022-11-11T10:23:54;31.33;;;22.05;;
49548;SDS011;35450;44.518;7.466;2022-11-11T10:27:22;26.77;;;20.42;;
49548;SDS011;35450;44.518;7.466;2022-11-11T10:30:46;28.48;;;21.70;;
49548;SDS011;35450;44.518;7.466;2022-11-11T10:34:11;27.45;;;20.90;;
49548;SDS011;35450;44.518;7.466;2022-11-11T10:37:41;28.38;;;21.60;;
49548;SDS011;35450;44.518;7.466;2022-11-11T10:41:12;29.38;;;21.38;;
49548;SDS011;35450;44.518;7.466;2022-11-11T10:44:47;29.83;;;22.10;;
49548;SDS011;35450;44.518;7.466;2022-11-11T10:48:17;28.17;;;21.00;;
49548;SDS011;35450;44.518;7.466;2022-11-11T10:52:12;31.27;;;22.42;;
49548;SDS011;35450;44.518;7.466;2022-11-11T10:56:05;27.20;;;21.23;;
49548;SDS011;35450;44.518;7.466;2022-11-11T11:02:54;27.73;;;20.80;;
49548;SDS011;35450;44.518;7.466;2022-11-11T11:06:36;31.08;;;22.63;;
49548;SDS011;35450;44.518;7.466;2022-11-11T11:10:13;25.75;;;20.85;;
49548;SDS011;35450;44.518;7.466;2022-11-11T11:13:42;28.17;;;22.58;;
49548;SDS011;35450;44.518;7.466;2022-11-11T11:17:21;27.38;;;22.08;;
49548;SDS011;35450;44.518;7.466;2022-11-11T11:20:55;33.75;;;23.05;;
49548;SDS011;35450;44.518;7.466;2022-11-11T11:27:48;29.63;;;22.55;;
49548;SDS011;35450;44.518;7.466;2022-11-11T11:31:13;30.58;;;23.13;;
49548;SDS011;35450;44.518;7.466;2022-11-11T11:34:43;31.08;;;23.08;;
49548;SDS011;35450;44.518;7.466;2022-11-11T11:38:07;30.67;;;22.77;;
49548;SDS011;35450;44.518;7.466;2022-11-11T11:41:36;32.67;;;24.10;;
49548;SDS011;35450;44.518;7.466;2022-11-11T11:56:21;32.63;;;25.00;;
49548;SDS011;35450;44.518;7.466;2022-11-11T12:00:03;32.67;;;25.13;;
49548;SDS011;35450;44.518;7.466;2022-11-11T12:07:18;33.83;;;26.33;;
49548;SDS011;35450;44.518;7.466;2022-11-11T12:22:47;41.03;;;28.95;;
49548;SDS011;35450;44.518;7.466;2022-11-11T12:37:45;40.50;;;28.48;;
49548;SDS011;35450;44.518;7.466;2022-11-11T13:03:59;40.03;;;29.17;;
49548;SDS011;35450;44.518;7.466;2022-11-11T13:15:24;36.97;;;28.02;;
49548;SDS011;35450;44.518;7.466;2022-11-11T13:22:27;38.38;;;28.45;;
49548;SDS011;35450;44.518;7.466;2022-11-11T13:25:52;42.78;;;29.85;;
49548;SDS011;35450;44.518;7.466;2022-11-11T13:36:39;44.00;;;30.48;;
49548;SDS011;35450;44.518;7.466;2022-11-11T13:44:07;38.90;;;27.48;;
49548;SDS011;35450;44.518;7.466;2022-11-11T13:47:37;43.95;;;30.10;;
49548;SDS011;35450;44.518;7.466;2022-11-11T13:51:13;44.40;;;31.45;;
49548;SDS011;35450;44.518;7.466;2022-11-11T13:54:41;42.40;;;29.90;;
49548;SDS011;35450;44.518;7.466;2022-11-11T13:58:45;40.58;;;30.20;;
49548;SDS011;35450;44.518;7.466;2022-11-11T14:02:26;41.35;;;30.95;;
49548;SDS011;35450;44.518;7.466;2022-11-11T14:06:54;39.80;;;31.25;;
49548;SDS011;35450;44.518;7.466;2022-11-11T14:09:58;47.53;;;33.33;;
49548;SDS011;35450;44.518;7.466;2022-11-11T14:23:53;44.63;;;34.13;;
49548;SDS011;35450;44.518;7.466;2022-11-11T14:27:17;48.38;;;35.47;;
49548;SDS011;35450;44.518;7.466;2022-11-11T14:30:51;45.95;;;33.80;;
49548;SDS011;35450;44.518;7.466;2022-11-11T14:38:04;42.80;;;32.03;;
49548;SDS011;35450;44.518;7.466;2022-11-11T14:41:45;47.20;;;32.22;;
49548;SDS011;35450;44.518;7.466;2022-11-11T14:48:49;47.08;;;32.75;;
49548;SDS011;35450;44.518;7.466;2022-11-11T15:21:30;51.80;;;32.30;;
49548;SDS011;35450;44.518;7.466;2022-11-11T15:39:25;49.97;;;36.33;;
49548;SDS011;35450;44.518;7.466;2022-11-11T15:43:00;52.00;;;35.38;;
49548;SDS011;35450;44.518;7.466;2022-11-11T15:46:25;47.75;;;34.55;;
49548;SDS011;35450;44.518;7.466;2022-11-11T15:49:51;46.20;;;31.92;;
49548;SDS011;35450;44.518;7.466;2022-11-11T15:53:19;50.63;;;32.80;;
49548;SDS011;35450;44.518;7.466;2022-11-11T15:56:47;50.75;;;32.88;;
49548;SDS011;35450;44.518;7.466;2022-11-11T16:03:45;48.70;;;33.60;;
49548;SDS011;35450;44.518;7.466;2022-11-11T16:07:16;48.67;;;33.63;;
49548;SDS011;35450;44.518;7.466;2022-11-11T16:10:42;43.83;;;31.70;;
49548;SDS011;35450;44.518;7.466;2022-11-11T16:14:05;52.83;;;32.63;;
49548;SDS011;35450;44.518;7.466;2022-11-11T16:17:29;44.83;;;32.22;;
49548;SDS011;35450;44.518;7.466;2022-11-11T16:21:08;47.05;;;32.22;;
49548;SDS011;35450;44.518;7.466;2022-11-11T16:24:37;55.20;;;35.15;;
49548;SDS011;35450;44.518;7.466;2022-11-11T16:28:02;71.40;;;41.83;;
49548;SDS011;35450;44.518;7.466;2022-11-11T16:31:35;56.40;;;37.45;;
49548;SDS011;35450;44.518;7.466;2022-11-11T16:35:00;50.83;;;32.30;;
49548;SDS011;35450;44.518;7.466;2022-11-11T16:38:29;59.10;;;37.53;;
49548;SDS011;35450;44.518;7.466;2022-11-11T16:41:53;53.33;;;36.08;;
49548;SDS011;35450;44.518;7.466;2022-11-11T16:45:19;50.03;;;36.25;;
49548;SDS011;35450;44.518;7.466;2022-11-11T16:48:44;58.03;;;37.95;;
49548;SDS011;35450;44.518;7.466;2022-11-11T16:52:11;45.88;;;32.03;;
49548;SDS011;35450;44.518;7.466;2022-11-11T16:55:37;52.00;;;34.20;;
49548;SDS011;35450;44.518;7.466;2022-11-11T16:59:07;61.38;;;38.90;;
49548;SDS011;35450;44.518;7.466;2022-11-11T17:02:41;50.70;;;34.95;;
49548;SDS011;35450;44.518;7.466;2022-11-11T17:06:04;45.95;;;31.45;;
49548;SDS011;35450;44.518;7.466;2022-11-11T17:12:58;52.60;;;33.65;;
49548;SDS011;35450;44.518;7.466;2022-11-11T17:16:24;46.67;;;32.10;;
49548;SDS011;35450;44.518;7.466;2022-11-11T17:23:08;51.45;;;31.52;;
49548;SDS011;35450;44.518;7.466;2022-11-11T17:26:31;49.13;;;33.53;;
49548;SDS011;35450;44.518;7.466;2022-11-11T17:29:55;51.13;;;34.13;;
49548;SDS011;35450;44.518;7.466;2022-11-11T17:33:18;47.90;;;34.38;;
49548;SDS011;35450;44.518;7.466;2022-11-11T17:40:04;51.80;;;32.28;;
49548;SDS011;35450;44.518;7.466;2022-11-11T17:43:27;51.38;;;33.67;;
49548;SDS011;35450;44.518;7.466;2022-11-11T17:46:51;45.53;;;33.03;;
49548;SDS011;35450;44.518;7.466;2022-11-11T17:50:14;49.53;;;34.85;;
49548;SDS011;35450;44.518;7.466;2022-11-11T17:53:38;52.53;;;34.03;;
49548;SDS011;35450;44.518;7.466;2022-11-11T17:57:00;55.17;;;35.03;;
49548;SDS011;35450;44.518;7.466;2022-11-11T18:03:46;52.83;;;33.97;;
49548;SDS011;35450;44.518;7.466;2022-11-11T18:07:09;50.55;;;34.50;;
49548;SDS011;35450;44.518;7.466;2022-11-11T18:10:32;52.83;;;36.45;;
49548;SDS011;35450;44.518;7.466;2022-11-11T18:13:54;52.25;;;36.22;;
49548;SDS011;35450;44.518;7.466;2022-11-11T18:17:17;49.80;;;33.10;;
49548;SDS011;35450;44.518;7.466;2022-11-11T18:20:40;58.80;;;40.85;;
49548;SDS011;35450;44.518;7.466;2022-11-11T18:24:04;48.85;;;34.88;;
49548;SDS011;35450;44.518;7.466;2022-11-11T18:27:27;57.90;;;37.78;;
49548;SDS011;35450;44.518;7.466;2022-11-11T18:30:50;54.70;;;38.13;;
49548;SDS011;35450;44.518;7.466;2022-11-11T18:34:13;54.00;;;33.67;;
49548;SDS011;35450;44.518;7.466;2022-11-11T18:37:35;53.83;;;37.00;;
49548;SDS011;35450;44.518;7.466;2022-11-11T18:44:38;62.35;;;43.95;;
49548;SDS011;35450;44.518;7.466;2022-11-11T18:48:01;61.80;;;40.80;;
49548;SDS011;35450;44.518;7.466;2022-11-11T18:51:24;47.13;;;34.60;;
49548;SDS011;35450;44.518;7.466;2022-11-11T18:54:48;51.22;;;36.83;;
49548;SDS011;35450;44.518;7.466;2022-11-11T18:58:11;61.45;;;38.80;;
49548;SDS011;35450;44.518;7.466;2022-11-11T19:04:58;43.90;;;30.15;;
49548;SDS011;35450;44.518;7.466;2022-11-11T19:08:21;52.17;;;33.83;;
49548;SDS011;35450;44.518;7.466;2022-11-11T19:11:44;49.33;;;34.13;;
49548;SDS011;35450;44.518;7.466;2022-11-11T19:15:08;34.60;;;24.27;;
49548;SDS011;35450;44.518;7.466;2022-11-11T19:18:32;35.92;;;25.67;;
49548;SDS011;35450;44.518;7.466;2022-11-11T19:21:55;35.10;;;23.30;;
49548;SDS011;35450;44.518;7.466;2022-11-11T19:25:18;32.63;;;23.08;;
49548;SDS011;35450;44.518;7.466;2022-11-11T19:28:41;33.22;;;24.38;;
49548;SDS011;35450;44.518;7.466;2022-11-11T19:32:04;34.58;;;24.25;;
49548;SDS011;35450;44.518;7.466;2022-11-11T19:35:26;33.78;;;24.90;;
49548;SDS011;35450;44.518;7.466;2022-11-11T19:38:49;38.65;;;27.33;;
49548;SDS011;35450;44.518;7.466;2022-11-11T19:42:12;39.58;;;28.35;;
49548;SDS011;35450;44.518;7.466;2022-11-11T19:45:35;38.35;;;26.88;;
49548;SDS011;35450;44.518;7.466;2022-11-11T19:48:57;34.10;;;25.05;;
49548;SDS011;35450;44.518;7.466;2022-11-11T19:52:21;40.85;;;27.55;;
49548;SDS011;35450;44.518;7.466;2022-11-11T19:55:55;38.85;;;27.58;;
49548;SDS011;35450;44.518;7.466;2022-11-11T19:59:18;41.83;;;27.55;;
49548;SDS011;35450;44.518;7.466;2022-11-11T20:02:43;35.70;;;25.25;;
49548;SDS011;35450;44.518;7.466;2022-11-11T20:06:16;48.45;;;31.45;;
49548;SDS011;35450;44.518;7.466;2022-11-11T20:09:52;45.03;;;32.00;;
49548;SDS011;35450;44.518;7.466;2022-11-11T20:13:15;47.58;;;30.75;;
49548;SDS011;35450;44.518;7.466;2022-11-11T20:19:59;44.33;;;29.00;;
49548;SDS011;35450;44.518;7.466;2022-11-11T20:26:44;34.80;;;24.10;;
49548;SDS011;35450;44.518;7.466;2022-11-11T20:30:08;31.73;;;22.35;;
49548;SDS011;35450;44.518;7.466;2022-11-11T20:33:30;50.70;;;31.40;;
49548;SDS011;35450;44.518;7.466;2022-11-11T20:36:52;51.15;;;35.03;;
49548;SDS011;35450;44.518;7.466;2022-11-11T20:40:15;63.17;;;42.30;;
49548;SDS011;35450;44.518;7.466;2022-11-11T20:43:38;64.82;;;40.20;;
49548;SDS011;35450;44.518;7.466;2022-11-11T20:47:01;27.60;;;20.40;;
49548;SDS011;35450;44.518;7.466;2022-11-11T20:50:24;29.55;;;19.60;;
49548;SDS011;35450;44.518;7.466;2022-11-11T20:57:12;32.60;;;22.33;;
49548;SDS011;35450;44.518;7.466;2022-11-11T21:00:37;31.40;;;21.10;;
49548;SDS011;35450;44.518;7.466;2022-11-11T21:04:00;28.90;;;20.15;;
49548;SDS011;35450;44.518;7.466;2022-11-11T21:07:23;28.67;;;20.13;;
49548;SDS011;35450;44.518;7.466;2022-11-11T21:10:45;29.48;;;21.50;;
49548;SDS011;35450;44.518;7.466;2022-11-11T21:14:08;34.25;;;23.23;;
49548;SDS011;35450;44.518;7.466;2022-11-11T21:20:53;31.85;;;21.05;;
49548;SDS011;35450;44.518;7.466;2022-11-11T21:24:16;34.97;;;23.10;;
49548;SDS011;35450;44.518;7.466;2022-11-11T21:27:39;32.53;;;19.83;;
49548;SDS011;35450;44.518;7.466;2022-11-11T21:31:03;24.23;;;18.00;;
49548;SDS011;35450;44.518;7.466;2022-11-11T21:34:27;27.02;;;19.08;;
49548;SDS011;35450;44.518;7.466;2022-11-11T21:37:51;24.35;;;17.60;;
49548;SDS011;35450;44.518;7.466;2022-11-11T21:41:16;20.75;;;14.13;;
49548;SDS011;35450;44.518;7.466;2022-11-11T21:44:41;23.20;;;15.20;;
49548;SDS011;35450;44.518;7.466;2022-11-11T21:48:04;22.35;;;16.25;;
49548;SDS011;35450;44.518;7.466;2022-11-11T21:51:29;25.15;;;17.08;;
49548;SDS011;35450;44.518;7.466;2022-11-11T21:54:52;27.27;;;17.63;;
49548;SDS011;35450;44.518;7.466;2022-11-11T21:58:15;28.10;;;14.93;;
49548;SDS011;35450;44.518;7.466;2022-11-11T22:01:39;59.95;;;30.90;;
49548;SDS011;35450;44.518;7.466;2022-11-11T22:05:03;15.20;;;9.65;;
49548;SDS011;35450;44.518;7.466;2022-11-11T22:08:27;12.27;;;8.45;;
49548;SDS011;35450;44.518;7.466;2022-11-11T22:11:49;12.60;;;9.75;;
49548;SDS011;35450;44.518;7.466;2022-11-11T22:15:12;17.35;;;10.68;;
49548;SDS011;35450;44.518;7.466;2022-11-11T22:18:35;18.92;;;13.05;;
49548;SDS011;35450;44.518;7.466;2022-11-11T22:21:57;23.05;;;14.98;;
49548;SDS011;35450;44.518;7.466;2022-11-11T22:25:20;27.05;;;17.27;;
49548;SDS011;35450;44.518;7.466;2022-11-11T22:28:43;39.00;;;23.75;;
49548;SDS011;35450;44.518;7.466;2022-11-11T22:32:07;32.83;;;19.98;;
49548;SDS011;35450;44.518;7.466;2022-11-11T22:35:30;16.90;;;11.90;;
49548;SDS011;35450;44.518;7.466;2022-11-11T22:38:52;13.07;;;9.13;;
49548;SDS011;35450;44.518;7.466;2022-11-11T22:42:15;13.93;;;8.05;;
49548;SDS011;35450;44.518;7.466;2022-11-11T22:45:38;21.48;;;10.93;;
49548;SDS011;35450;44.518;7.466;2022-11-11T22:49:02;17.23;;;11.40;;
49548;SDS011;35450;44.518;7.466;2022-11-11T22:52:27;13.88;;;10.05;;
49548;SDS011;35450;44.518;7.466;2022-11-11T22:55:50;12.82;;;8.60;;
49548;SDS011;35450;44.518;7.466;2022-11-11T22:59:12;12.43;;;8.98;;
49548;SDS011;35450;44.518;7.466;2022-11-11T23:02:34;38.85;;;23.90;;
49548;SDS011;35450;44.518;7.466;2022-11-11T23:06:01;65.25;;;40.17;;
49548;SDS011;35450;44.518;7.466;2022-11-11T23:09:25;48.55;;;29.08;;
49548;SDS011;35450;44.518;7.466;2022-11-11T23:12:47;20.60;;;12.98;;
49548;SDS011;35450;44.518;7.466;2022-11-11T23:16:11;12.07;;;7.63;;
49548;SDS011;35450;44.518;7.466;2022-11-11T23:19:34;10.93;;;7.18;;
49548;SDS011;35450;44.518;7.466;2022-11-11T23:23:00;10.45;;;7.03;;
49548;SDS011;35450;44.518;7.466;2022-11-11T23:26:23;11.35;;;8.13;;
49548;SDS011;35450;44.518;7.466;2022-11-11T23:29:54;57.23;;;38.37;;
49548;SDS011;35450;44.518;7.466;2022-11-11T23:33:16;47.95;;;31.92;;
49548;SDS011;35450;44.518;7.466;2022-11-11T23:36:39;31.13;;;21.17;;
49548;SDS011;35450;44.518;7.466;2022-11-11T23:40:02;38.35;;;19.38;;
49548;SDS011;35450;44.518;7.466;2022-11-11T23:43:25;30.17;;;14.82;;
49548;SDS011;35450;44.518;7.466;2022-11-11T23:46:48;77.13;;;31.80;;
49548;SDS011;35450;44.518;7.466;2022-11-11T23:50:11;21.80;;;13.85;;
49548;SDS011;35450;44.518;7.466;2022-11-11T23:53:34;16.80;;;10.70;;
49548;SDS011;35450;44.518;7.466;2022-11-11T23:56:57;13.90;;;8.95;;
